Time;durP1;ratioP1;P1;durP2;ratioP2;P2;SDS_P1;SDS_P2;PMS_P1;PMS_P2;Temp;Humidity;BMP_temperature;BMP_pressure;BME280_temperature;BME280_humidity;BME280_pressure;Samples;Min_cycle;Max_cycle;Signal;HPM_P1;HPM_P2
2024/01/03 00:01:18;;;;;;;2.47;2.28;;;;;;;;;;5853806;28;20042;-79
2024/01/03 00:04:11;;;;;;;1.73;1.63;;;;;;;;;;5842160;28;20053;-79
2024/01/03 00:07:02;;;;;;;2.25;1.15;;;;;;;;;;5844090;28;20132;-79
2024/01/03 00:09:56;;;;;;;2.35;1.40;;;;;;;;;;5843028;28;20420;-78
2024/01/03 00:12:47;;;;;;;1.65;1.30;;;;;;;;;;5843662;28;20416;-78
2024/01/03 00:15:37;;;;;;;1.90;1.00;;;;;;;;;;5842426;28;20491;-78
2024/01/03 00:18:55;;;;;;;1.30;1.20;;;;;;;;;;5843674;28;20511;-78
2024/01/03 00:21:47;;;;;;;3.20;1.58;;;;;;;;;;5842554;28;20053;-78
2024/01/03 00:24:48;;;;;;;11.07;1.13;;;;;;;;;;5858634;28;20064;-78
2024/01/03 00:27:39;;;;;;;2.90;1.77;;;;;;;;;;5858579;28;20121;-79
2024/01/03 00:30:31;;;;;;;2.70;2.05;;;;;;;;;;5842225;28;20069;-78
2024/01/03 00:33:22;;;;;;;1.38;1.27;;;;;;;;;;5841849;28;20132;-78
2024/01/03 00:36:16;;;;;;;1.85;1.17;;;;;;;;;;5841998;28;20054;-79
2024/01/03 00:39:07;;;;;;;4.07;2.17;;;;;;;;;;5858217;28;20060;-79
2024/01/03 00:41:58;;;;;;;3.22;2.40;;;;;;;;;;5843810;28;20332;-78
2024/01/03 00:44:49;;;;;;;1.88;1.55;;;;;;;;;;5843460;28;20052;-78
2024/01/03 00:47:40;;;;;;;3.63;1.75;;;;;;;;;;5841780;28;20050;-79
2024/01/03 00:50:30;;;;;;;4.55;2.22;;;;;;;;;;5843263;28;20068;-78
2024/01/03 00:53:22;;;;;;;2.00;1.80;;;;;;;;;;5841461;28;20046;-78
2024/01/03 00:56:13;;;;;;;1.77;1.67;;;;;;;;;;5842626;28;20054;-79
2024/01/03 00:59:07;;;;;;;3.47;1.70;;;;;;;;;;5841666;28;20049;-79
2024/01/03 01:01:58;;;;;;;1.42;1.23;;;;;;;;;;5849636;28;20057;-78
2024/01/03 01:04:49;;;;;;;1.10;1.02;;;;;;;;;;5858933;28;20522;-78
2024/01/03 01:07:40;;;;;;;2.08;1.42;;;;;;;;;;5864357;28;20049;-78
2024/01/03 01:10:30;;;;;;;1.75;1.17;;;;;;;;;;5865709;28;20044;-78
2024/01/03 01:13:21;;;;;;;1.73;1.55;;;;;;;;;;5863875;28;20041;-79
2024/01/03 01:16:12;;;;;;;2.05;1.45;;;;;;;;;;5880321;28;20065;-78
2024/01/03 01:19:05;;;;;;;1.00;0.90;;;;;;;;;;5865511;28;20053;-79
2024/01/03 01:21:56;;;;;;;1.27;1.15;;;;;;;;;;5865932;28;20518;-78
2024/01/03 01:24:47;;;;;;;1.08;0.95;;;;;;;;;;5863946;28;20056;-78
2024/01/03 01:27:37;;;;;;;2.67;0.90;;;;;;;;;;5863945;28;20052;-78
2024/01/03 01:30:28;;;;;;;0.60;0.60;;;;;;;;;;5865610;28;20052;-78
2024/01/03 01:33:20;;;;;;;0.90;0.90;;;;;;;;;;5864914;28;20095;-78
2024/01/03 01:36:11;;;;;;;0.93;0.93;;;;;;;;;;5830006;28;20061;-78
2024/01/03 01:39:03;;;;;;;0.47;0.47;;;;;;;;;;5842102;28;20060;-78
2024/01/03 01:41:54;;;;;;;0.50;0.50;;;;;;;;;;5842448;28;20432;-78
2024/01/03 01:44:44;;;;;;;1.17;0.85;;;;;;;;;;5840474;28;20147;-78
2024/01/03 01:47:38;;;;;;;0.32;0.32;;;;;;;;;;5841866;28;20491;-78
2024/01/03 01:50:29;;;;;;;0.50;0.50;;;;;;;;;;5840498;28;20060;-78
2024/01/03 01:53:22;;;;;;;3.10;0.45;;;;;;;;;;5840264;28;20069;-78
2024/01/03 01:56:13;;;;;;;2.38;1.70;;;;;;;;;;5840292;28;20054;-78
2024/01/03 01:59:06;;;;;;;0.52;0.52;;;;;;;;;;5840405;28;20054;-78
2024/01/03 02:01:57;;;;;;;1.67;0.77;;;;;;;;;;5842068;28;20472;-78
2024/01/03 02:04:49;;;;;;;0.85;0.85;;;;;;;;;;5840052;28;20045;-78
2024/01/03 02:07:40;;;;;;;0.65;0.65;;;;;;;;;;5841487;28;20141;-78
2024/01/03 02:10:31;;;;;;;0.82;0.82;;;;;;;;;;5840102;28;20046;-78
2024/01/03 02:13:22;;;;;;;2.05;0.90;;;;;;;;;;5839806;28;20416;-79
2024/01/03 02:16:12;;;;;;;3.92;1.52;;;;;;;;;;5841378;28;20401;-79
2024/01/03 02:19:05;;;;;;;1.85;1.13;;;;;;;;;;5839920;28;20045;-79
2024/01/03 02:22:00;;;;;;;1.05;1.02;;;;;;;;;;5856467;28;20591;-78
2024/01/03 02:24:50;;;;;;;1.05;1.00;;;;;;;;;;5870711;28;20038;-78
2024/01/03 02:27:41;;;;;;;0.73;0.73;;;;;;;;;;5861908;28;20048;-79
2024/01/03 02:30:32;;;;;;;0.75;0.70;;;;;;;;;;5863967;28;20053;-78
2024/01/03 02:33:23;;;;;;;0.35;0.35;;;;;;;;;;5863966;28;20041;-79
2024/01/03 02:36:16;;;;;;;1.10;0.77;;;;;;;;;;5862574;28;20049;-79
2024/01/03 02:39:07;;;;;;;1.10;1.00;;;;;;;;;;5829028;28;20054;-79
2024/01/03 02:41:58;;;;;;;0.70;0.70;;;;;;;;;;5841072;28;20064;-78
2024/01/03 02:44:49;;;;;;;0.70;0.70;;;;;;;;;;5855817;28;20052;-78
2024/01/03 02:47:40;;;;;;;0.73;0.63;;;;;;;;;;5840520;28;20874;-78
2024/01/03 02:50:31;;;;;;;0.47;0.47;;;;;;;;;;5823260;28;20048;-78
2024/01/03 02:53:22;;;;;;;0.60;0.60;;;;;;;;;;5838960;28;20056;-78
2024/01/03 02:56:12;;;;;;;0.20;0.20;;;;;;;;;;5840443;28;20053;-78
2024/01/03 02:59:03;;;;;;;0.52;0.52;;;;;;;;;;5840395;28;20531;-79
2024/01/03 03:01:56;;;;;;;0.57;0.52;;;;;;;;;;5839341;28;20046;-78
2024/01/03 03:04:47;;;;;;;0.50;0.50;;;;;;;;;;5855413;28;20057;-78
2024/01/03 03:07:38;;;;;;;0.55;0.55;;;;;;;;;;5840037;28;20046;-78
2024/01/03 03:10:29;;;;;;;0.55;0.38;;;;;;;;;;5839240;28;20046;-78
2024/01/03 03:13:20;;;;;;;1.85;1.02;;;;;;;;;;5838632;28;20057;-78
2024/01/03 03:16:10;;;;;;;0.50;0.50;;;;;;;;;;5838772;28;20080;-78
2024/01/03 03:19:03;;;;;;;0.30;0.30;;;;;;;;;;5838866;28;20420;-79
2024/01/03 03:21:54;;;;;;;0.10;0.10;;;;;;;;;;5855614;28;20414;-78
2024/01/03 03:24:45;;;;;;;0.30;0.30;;;;;;;;;;5840098;28;20048;-78
2024/01/03 03:27:36;;;;;;;0.20;0.20;;;;;;;;;;5839883;28;20046;-78
2024/01/03 03:30:26;;;;;;;0.20;0.20;;;;;;;;;;5838574;28;20045;-78
2024/01/03 03:33:17;;;;;;;0.10;0.10;;;;;;;;;;5839591;28;20058;-78
2024/01/03 03:36:12;;;;;;;0.20;0.20;;;;;;;;;;5839934;28;20045;-78
2024/01/03 03:39:07;;;;;;;0.50;0.50;;;;;;;;;;5854528;28;20053;-78
2024/01/03 03:41:59;;;;;;;0.47;0.47;;;;;;;;;;5838966;28;20104;-78
2024/01/03 03:44:53;;;;;;;0.50;0.50;;;;;;;;;;5862862;28;20049;-78
2024/01/03 03:47:46;;;;;;;0.22;0.22;;;;;;;;;;5862594;28;20049;-78
2024/01/03 03:50:37;;;;;;;0.50;0.50;;;;;;;;;;5861638;28;20041;-78
2024/01/03 03:53:28;;;;;;;0.60;0.60;;;;;;;;;;5861064;28;20083;-78
2024/01/03 03:56:25;;;;;;;0.52;0.52;;;;;;;;;;5877893;28;20041;-78
2024/01/03 03:59:16;;;;;;;0.70;0.70;;;;;;;;;;5861312;28;20049;-78
2024/01/03 04:02:07;;;;;;;0.57;0.57;;;;;;;;;;5861354;28;20050;-78
2024/01/03 04:04:58;;;;;;;0.30;0.30;;;;;;;;;;5861486;28;20069;-78
2024/01/03 04:07:49;;;;;;;0.70;0.70;;;;;;;;;;5861213;28;20053;-78
2024/01/03 04:10:39;;;;;;;0.63;0.63;;;;;;;;;;5862460;28;20034;-78
2024/01/03 04:13:31;;;;;;;0.40;0.40;;;;;;;;;;5862263;28;20042;-78
2024/01/03 04:16:21;;;;;;;0.52;0.52;;;;;;;;;;5862396;28;20045;-78
2024/01/03 04:19:12;;;;;;;0.25;0.25;;;;;;;;;;5877350;28;20428;-78
2024/01/03 04:22:03;;;;;;;1.15;1.05;;;;;;;;;;5861064;28;20479;-78
2024/01/03 04:24:54;;;;;;;6.15;0.52;;;;;;;;;;5862661;28;20045;-78
2024/01/03 04:27:45;;;;;;;0.20;0.20;;;;;;;;;;5862437;28;20530;-78
2024/01/03 04:30:35;;;;;;;0.35;0.30;;;;;;;;;;5861154;28;20695;-78
2024/01/03 04:33:26;;;;;;;0.40;0.40;;;;;;;;;;5861666;28;20048;-77
2024/01/03 04:36:17;;;;;;;0.40;0.40;;;;;;;;;;5860708;28;20087;-78
2024/01/03 04:39:08;;;;;;;0.40;0.40;;;;;;;;;;5860938;28;20054;-78
2024/01/03 04:41:59;;;;;;;0.73;0.70;;;;;;;;;;5861508;28;20493;-78
2024/01/03 04:44:50;;;;;;;1.27;0.40;;;;;;;;;;5862391;28;20052;-78
2024/01/03 04:47:41;;;;;;;0.52;0.52;;;;;;;;;;5860557;28;20041;-78
2024/01/03 04:50:32;;;;;;;4.30;0.60;;;;;;;;;;5863778;28;20045;-78
2024/01/03 04:53:23;;;;;;;0.40;0.40;;;;;;;;;;5864915;28;20056;-78
2024/01/03 04:56:14;;;;;;;0.65;0.65;;;;;;;;;;5864697;28;20119;-78
2024/01/03 04:59:05;;;;;;;0.57;0.57;;;;;;;;;;5866276;28;20183;-78
2024/01/03 05:01:55;;;;;;;0.35;0.35;;;;;;;;;;5848696;28;20049;-78
2024/01/03 05:04:48;;;;;;;0.98;0.60;;;;;;;;;;5865026;28;20041;-78
2024/01/03 05:07:39;;;;;;;0.63;0.63;;;;;;;;;;5865971;28;20041;-78
2024/01/03 05:10:30;;;;;;;0.63;0.55;;;;;;;;;;5864535;28;20057;-78
2024/01/03 05:13:21;;;;;;;0.30;0.30;;;;;;;;;;5847923;28;20050;-78
2024/01/03 05:16:12;;;;;;;0.43;0.38;;;;;;;;;;5864639;28;20576;-78
2024/01/03 05:19:03;;;;;;;0.70;0.57;;;;;;;;;;5865861;28;20611;-79
2024/01/03 05:21:54;;;;;;;0.40;0.40;;;;;;;;;;5865895;28;20172;-78
2024/01/03 05:24:44;;;;;;;4.57;1.20;;;;;;;;;;5864119;28;20132;-78
2024/01/03 05:27:35;;;;;;;1.13;0.70;;;;;;;;;;5865403;28;20045;-78
2024/01/03 05:30:26;;;;;;;0.80;0.80;;;;;;;;;;5864067;28;20044;-78
2024/01/03 05:33:17;;;;;;;1.00;0.98;;;;;;;;;;5863383;28;20068;-78
2024/01/03 05:36:08;;;;;;;4.03;0.80;;;;;;;;;;5880551;28;20056;-78
2024/01/03 05:38:59;;;;;;;0.65;0.50;;;;;;;;;;5865738;28;20056;-78
2024/01/03 05:41:50;;;;;;;0.93;0.52;;;;;;;;;;5880232;28;20444;-78
2024/01/03 05:44:41;;;;;;;7.57;0.68;;;;;;;;;;5864031;28;20072;-78
2024/01/03 05:47:32;;;;;;;0.95;0.70;;;;;;;;;;5863806;28;20510;-78
2024/01/03 05:50:23;;;;;;;0.25;0.25;;;;;;;;;;5863861;28;20465;-78
2024/01/03 05:53:13;;;;;;;1.08;0.85;;;;;;;;;;5863597;28;20198;-78
2024/01/03 05:56:05;;;;;;;0.70;0.70;;;;;;;;;;5864844;28;20054;-78
2024/01/03 05:58:56;;;;;;;0.88;0.75;;;;;;;;;;5865209;28;20053;-78
2024/01/03 06:01:46;;;;;;;1.00;0.90;;;;;;;;;;5863434;28;20049;-78
2024/01/03 06:04:37;;;;;;;0.40;0.40;;;;;;;;;;5864629;28;20052;-78
2024/01/03 06:07:28;;;;;;;0.30;0.30;;;;;;;;;;5864704;28;20053;-78
2024/01/03 06:10:19;;;;;;;0.52;0.52;;;;;;;;;;5879664;28;20172;-78
2024/01/03 06:13:14;;;;;;;0.90;0.80;;;;;;;;;;5846897;28;20049;-78
2024/01/03 06:16:05;;;;;;;0.88;0.88;;;;;;;;;;5853408;28;20053;-78
2024/01/03 06:18:56;;;;;;;0.65;0.43;;;;;;;;;;5847419;28;20495;-78
2024/01/03 06:21:47;;;;;;;2.22;0.95;;;;;;;;;;5863000;28;20046;-78
2024/01/03 06:24:38;;;;;;;0.20;0.20;;;;;;;;;;5862899;28;20049;-78
2024/01/03 06:27:28;;;;;;;1.95;0.80;;;;;;;;;;5863961;28;20068;-78
2024/01/03 06:30:19;;;;;;;0.68;0.68;;;;;;;;;;5862503;28;20058;-78
2024/01/03 06:33:10;;;;;;;1.05;0.70;;;;;;;;;;5862765;28;20045;-78
2024/01/03 06:36:01;;;;;;;1.02;0.93;;;;;;;;;;5863871;28;20491;-78
2024/01/03 06:38:52;;;;;;;0.50;0.50;;;;;;;;;;5846805;28;20128;-78
2024/01/03 06:41:43;;;;;;;1.17;1.08;;;;;;;;;;5846208;28;20121;-78
2024/01/03 06:44:34;;;;;;;1.38;1.05;;;;;;;;;;5863706;28;20065;-78
2024/01/03 06:47:25;;;;;;;12.80;2.60;;;;;;;;;;5863720;28;20128;-78
2024/01/03 06:50:16;;;;;;;4.38;1.15;;;;;;;;;;5863862;28;20049;-78
2024/01/03 06:53:07;;;;;;;0.82;0.82;;;;;;;;;;5863762;28;20053;-79
2024/01/03 06:55:58;;;;;;;2.17;1.45;;;;;;;;;;5862665;28;20400;-78
2024/01/03 06:58:52;;;;;;;1.48;1.38;;;;;;;;;;5862146;28;20118;-78
2024/01/03 07:01:42;;;;;;;1.67;1.38;;;;;;;;;;5846043;28;20045;-78
2024/01/03 07:04:34;;;;;;;0.57;0.52;;;;;;;;;;5863355;28;20365;-78
2024/01/03 07:07:24;;;;;;;2.05;1.00;;;;;;;;;;5861717;28;20046;-78
2024/01/03 07:10:15;;;;;;;1.02;0.98;;;;;;;;;;5863211;28;20049;-78
2024/01/03 07:13:06;;;;;;;5.15;2.05;;;;;;;;;;5861261;28;20068;-78
2024/01/03 07:15:57;;;;;;;2.28;1.45;;;;;;;;;;5878502;28;20083;-78
2024/01/03 07:18:47;;;;;;;0.68;0.68;;;;;;;;;;5863039;28;20049;-78
2024/01/03 07:21:38;;;;;;;1.80;1.70;;;;;;;;;;5877973;28;20049;-78
2024/01/03 07:24:29;;;;;;;1.33;1.23;;;;;;;;;;5862865;28;20042;-78
2024/01/03 07:27:20;;;;;;;1.58;1.27;;;;;;;;;;5862790;28;20053;-78
2024/01/03 07:30:11;;;;;;;1.27;0.85;;;;;;;;;;5861564;28;20053;-78
2024/01/03 07:33:02;;;;;;;1.17;1.08;;;;;;;;;;5862677;28;20056;-79
2024/01/03 07:35:54;;;;;;;0.40;0.40;;;;;;;;;;5861807;28;20049;-78
2024/01/03 07:38:45;;;;;;;0.98;0.73;;;;;;;;;;5861526;28;20452;-78
2024/01/03 07:41:36;;;;;;;1.15;1.05;;;;;;;;;;5861616;28;20049;-78
2024/01/03 07:44:33;;;;;;;0.60;0.60;;;;;;;;;;5845220;28;20053;-78
2024/01/03 07:47:24;;;;;;;0.82;0.45;;;;;;;;;;5862905;28;20049;-78
2024/01/03 07:50:16;;;;;;;0.57;0.57;;;;;;;;;;5862930;28;20049;-78
2024/01/03 07:53:07;;;;;;;1.60;1.23;;;;;;;;;;5862603;28;20053;-78
2024/01/03 07:55:58;;;;;;;6.60;1.10;;;;;;;;;;5861866;28;20123;-78
2024/01/03 07:58:49;;;;;;;0.85;0.85;;;;;;;;;;5862343;28;20407;-78
2024/01/03 08:01:39;;;;;;;3.65;1.77;;;;;;;;;;5861292;28;20120;-78
2024/01/03 08:04:30;;;;;;;2.22;1.13;;;;;;;;;;5861116;28;20131;-78
2024/01/03 08:07:21;;;;;;;1.27;1.17;;;;;;;;;;5862428;28;20064;-78
2024/01/03 08:10:12;;;;;;;0.75;0.75;;;;;;;;;;5863321;28;20045;-78
2024/01/03 08:13:03;;;;;;;0.85;0.85;;;;;;;;;;5861126;28;20091;-78
2024/01/03 08:15:53;;;;;;;1.27;1.20;;;;;;;;;;5861249;28;20133;-78
2024/01/03 08:18:46;;;;;;;1.98;1.52;;;;;;;;;;5860956;28;20388;-78
2024/01/03 08:21:37;;;;;;;4.05;1.65;;;;;;;;;;5860695;28;20046;-78
2024/01/03 08:24:28;;;;;;;1.13;1.08;;;;;;;;;;5863368;28;20080;-78
2024/01/03 08:27:23;;;;;;;1.52;1.15;;;;;;;;;;5849537;28;20041;-78
2024/01/03 08:30:13;;;;;;;0.93;0.68;;;;;;;;;;5865304;28;20053;-78
2024/01/03 08:33:04;;;;;;;0.77;0.65;;;;;;;;;;5881876;28;20167;-79
2024/01/03 08:35:56;;;;;;;1.33;1.15;;;;;;;;;;5865797;28;20083;-78
2024/01/03 08:38:47;;;;;;;1.17;1.08;;;;;;;;;;5865394;28;20073;-78
2024/01/03 08:41:38;;;;;;;1.85;1.45;;;;;;;;;;5866762;28;20069;-78
2024/01/03 08:44:29;;;;;;;2.08;1.17;;;;;;;;;;5848632;28;20140;-78
2024/01/03 08:47:19;;;;;;;0.85;0.85;;;;;;;;;;5865015;28;20415;-78
2024/01/03 08:50:11;;;;;;;3.00;1.63;;;;;;;;;;5848545;28;20526;-78
2024/01/03 08:53:02;;;;;;;1.92;1.05;;;;;;;;;;5865954;28;20454;-78
2024/01/03 08:55:53;;;;;;;1.52;0.90;;;;;;;;;;5864867;28;20069;-78
2024/01/03 08:58:46;;;;;;;2.25;1.48;;;;;;;;;;5865841;28;20045;-78
2024/01/03 09:01:37;;;;;;;1.88;1.48;;;;;;;;;;5864798;28;20419;-78
2024/01/03 09:04:28;;;;;;;1.10;1.08;;;;;;;;;;5847897;28;20048;-78
2024/01/03 09:07:19;;;;;;;0.68;0.65;;;;;;;;;;5865866;28;20056;-78
2024/01/03 09:10:09;;;;;;;0.95;0.95;;;;;;;;;;5864317;28;20050;-78
2024/01/03 09:13:00;;;;;;;4.95;1.17;;;;;;;;;;5864747;28;20135;-78
2024/01/03 09:15:52;;;;;;;4.95;1.52;;;;;;;;;;5850845;28;20053;-78
2024/01/03 09:18:43;;;;;;;1.77;1.35;;;;;;;;;;5842391;28;20041;-78
2024/01/03 09:21:34;;;;;;;1.33;1.23;;;;;;;;;;5841259;28;20042;-78
2024/01/03 09:24:26;;;;;;;4.47;3.22;;;;;;;;;;5824846;28;20507;-78
2024/01/03 09:27:17;;;;;;;2.60;2.03;;;;;;;;;;5840951;28;20420;-78
2024/01/03 09:30:09;;;;;;;2.83;1.77;;;;;;;;;;5840946;28;20061;-78
2024/01/03 09:33:00;;;;;;;2.15;1.50;;;;;;;;;;5842563;28;20050;-78
2024/01/03 09:35:51;;;;;;;3.78;2.17;;;;;;;;;;5841736;28;20496;-78
2024/01/03 09:38:42;;;;;;;1.15;0.93;;;;;;;;;;5824614;28;20123;-78
2024/01/03 09:41:33;;;;;;;2.10;1.88;;;;;;;;;;5841917;28;20143;-78
2024/01/03 09:44:26;;;;;;;1.48;1.25;;;;;;;;;;5824579;28;20064;-78
2024/01/03 09:47:20;;;;;;;2.35;1.77;;;;;;;;;;5841006;28;20128;-78
2024/01/03 09:50:11;;;;;;;9.07;8.18;;;;;;;;;;5857305;28;20486;-78
2024/01/03 09:53:05;;;;;;;3.05;2.70;;;;;;;;;;5840208;28;20050;-78
2024/01/03 09:55:56;;;;;;;3.20;2.75;;;;;;;;;;5824845;28;20065;-78
2024/01/03 09:58:47;;;;;;;4.82;3.30;;;;;;;;;;5840543;28;20042;-78
2024/01/03 10:01:38;;;;;;;5.63;3.33;;;;;;;;;;5840427;28;20171;-78
2024/01/03 10:04:29;;;;;;;5.60;3.20;;;;;;;;;;5840046;28;20078;-78
2024/01/03 10:07:36;;;;;;;4.68;2.67;;;;;;;;;;5856680;28;20049;-78
2024/01/03 10:10:34;;;;;;;1.05;1.05;;;;;;;;;;5840224;28;20046;-78
2024/01/03 10:13:27;;;;;;;2.10;1.70;;;;;;;;;;5824033;28;20052;-78
2024/01/03 10:16:28;;;;;;;2.13;1.92;;;;;;;;;;5839980;28;20492;-78
2024/01/03 10:19:20;;;;;;;26.27;2.55;;;;;;;;;;5823798;28;20407;-78
2024/01/03 10:22:17;;;;;;;2.78;1.67;;;;;;;;;;5823900;28;20054;-79
2024/01/03 10:25:16;;;;;;;1.92;1.73;;;;;;;;;;5839537;28;20060;-78
2024/01/03 10:28:11;;;;;;;1.70;1.45;;;;;;;;;;5839727;28;20502;-78
2024/01/03 10:31:07;;;;;;;0.77;0.75;;;;;;;;;;5839597;28;20049;-78
2024/01/03 10:33:58;;;;;;;4.13;1.60;;;;;;;;;;5824357;28;20229;-78
2024/01/03 10:36:54;;;;;;;4.30;3.08;;;;;;;;;;5840763;28;20454;-78
2024/01/03 10:39:49;;;;;;;1.67;1.25;;;;;;;;;;5839390;28;20050;-78
2024/01/03 10:42:40;;;;;;;4.80;2.15;;;;;;;;;;5839442;28;20042;-78
2024/01/03 10:45:33;;;;;;;4.93;4.25;;;;;;;;;;5823113;28;20064;-78
2024/01/03 10:48:23;;;;;;;6.28;4.15;;;;;;;;;;5822240;28;20043;-78
2024/01/03 10:51:19;;;;;;;4.30;3.38;;;;;;;;;;5840608;28;20053;-78
2024/01/03 10:54:13;;;;;;;3.42;2.85;;;;;;;;;;5840501;28;20049;-78
2024/01/03 10:57:04;;;;;;;3.90;2.78;;;;;;;;;;5838845;28;20054;-78
2024/01/03 11:00:38;;;;;;;4.63;2.75;;;;;;;;;;5840681;28;20070;-78
2024/01/03 11:03:53;;;;;;;4.32;2.45;;;;;;;;;;5855727;28;20037;-78
2024/01/03 11:07:01;;;;;;;1.45;1.30;;;;;;;;;;5861982;28;20038;-78
2024/01/03 11:09:52;;;;;;;1.52;1.42;;;;;;;;;;5878457;28;20041;-78
2024/01/03 11:12:43;;;;;;;3.30;1.80;;;;;;;;;;5861827;28;20049;-78
2024/01/03 11:15:42;;;;;;;6.68;3.65;;;;;;;;;;5862961;28;20037;-78
2024/01/03 11:18:40;;;;;;;5.88;3.80;;;;;;;;;;5861803;28;20132;-78
2024/01/03 11:21:35;;;;;;;3.78;2.90;;;;;;;;;;5862981;28;20046;-78
2024/01/03 11:24:29;;;;;;;4.85;3.53;;;;;;;;;;5862780;28;20076;-78
2024/01/03 11:27:21;;;;;;;3.75;2.17;;;;;;;;;;5862959;28;20052;-78
2024/01/03 11:30:42;;;;;;;2.47;2.28;;;;;;;;;;5861972;28;20521;-79
2024/01/03 11:33:38;;;;;;;3.03;2.70;;;;;;;;;;5863132;28;20496;-78
2024/01/03 11:36:45;;;;;;;2.75;1.45;;;;;;;;;;5861376;28;20118;-78
2024/01/03 11:39:42;;;;;;;1.70;1.33;;;;;;;;;;5862573;28;20052;-78
2024/01/03 11:42:41;;;;;;;2.25;2.03;;;;;;;;;;5877000;28;20052;-78
2024/01/03 11:45:32;;;;;;;2.67;2.00;;;;;;;;;;5877259;28;20128;-78
2024/01/03 11:48:22;;;;;;;5.18;1.73;;;;;;;;;;5862544;28;20061;-79
2024/01/03 11:51:24;;;;;;;2.03;1.83;;;;;;;;;;5877560;28;20053;-78
2024/01/03 11:54:15;;;;;;;6.07;2.28;;;;;;;;;;5862321;28;20115;-78
2024/01/03 11:57:09;;;;;;;1.70;1.35;;;;;;;;;;5861051;28;20053;-79
2024/01/03 12:00:00;;;;;;;6.50;2.65;;;;;;;;;;5865541;28;20639;-78
2024/01/03 12:02:56;;;;;;;8.45;2.42;;;;;;;;;;5882308;28;20044;-78
2024/01/03 12:05:47;;;;;;;3.63;2.60;;;;;;;;;;5866043;28;20396;-78
2024/01/03 12:08:38;;;;;;;6.75;4.18;;;;;;;;;;5866960;28;20049;-79
2024/01/03 12:11:31;;;;;;;3.83;2.47;;;;;;;;;;5865823;28;20454;-78
2024/01/03 12:14:22;;;;;;;2.70;1.65;;;;;;;;;;5865401;28;20487;-79
2024/01/03 12:17:13;;;;;;;10.40;3.35;;;;;;;;;;5865810;28;20056;-79
2024/01/03 12:20:15;;;;;;;2.17;1.20;;;;;;;;;;5832417;28;20425;-78
2024/01/03 12:23:10;;;;;;;3.25;2.72;;;;;;;;;;5826927;28;20105;-79
2024/01/03 12:26:11;;;;;;;3.28;2.05;;;;;;;;;;5858337;28;20056;-79
2024/01/03 12:29:03;;;;;;;5.22;2.17;;;;;;;;;;5842682;28;20058;-85
2024/01/03 12:31:55;;;;;;;1.08;0.98;;;;;;;;;;5842383;28;20100;-85
2024/01/03 12:35:04;;;;;;;22.48;10.20;;;;;;;;;;5842255;28;20196;-85
2024/01/03 12:37:54;;;;;;;9.02;4.43;;;;;;;;;;5857955;28;20418;-85
2024/01/03 12:40:47;;;;;;;4.18;2.70;;;;;;;;;;5826055;28;20046;-85
2024/01/03 12:43:37;;;;;;;5.07;3.58;;;;;;;;;;5843086;28;20053;-85
2024/01/03 12:46:28;;;;;;;2.70;1.75;;;;;;;;;;5825566;28;20049;-85
2024/01/03 12:49:19;;;;;;;24.88;2.67;;;;;;;;;;5841717;28;20046;-85
2024/01/03 12:52:10;;;;;;;2.60;1.50;;;;;;;;;;5841729;28;20049;-85
2024/01/03 12:55:02;;;;;;;2.97;2.38;;;;;;;;;;5841553;28;20621;-84
2024/01/03 12:57:53;;;;;;;2.13;1.92;;;;;;;;;;5858386;28;20050;-85
2024/01/03 13:00:44;;;;;;;10.48;4.32;;;;;;;;;;5825330;28;20037;-84
2024/01/03 13:03:35;;;;;;;4.30;2.75;;;;;;;;;;5841377;28;20092;-85
2024/01/03 13:06:26;;;;;;;6.13;3.75;;;;;;;;;;5842515;28;20069;-85
2024/01/03 13:09:23;;;;;;;8.43;5.70;;;;;;;;;;5841016;28;20050;-85
2024/01/03 13:12:14;;;;;;;23.25;10.77;;;;;;;;;;5825541;28;20525;-85
2024/01/03 13:15:06;;;;;;;3.55;3.15;;;;;;;;;;5842616;28;20057;-87
2024/01/03 13:17:57;;;;;;;38.72;20.38;;;;;;;;;;5841656;28;20054;-86
2024/01/03 13:20:48;;;;;;;6.50;3.33;;;;;;;;;;5841103;28;20368;-84
2024/01/03 13:23:39;;;;;;;2.03;1.58;;;;;;;;;;5841069;28;20105;-84
2024/01/03 13:26:30;;;;;;;5.60;3.03;;;;;;;;;;5857520;28;20131;-85
2024/01/03 13:29:21;;;;;;;3.53;2.63;;;;;;;;;;5856981;28;20054;-85
2024/01/03 13:32:12;;;;;;;3.92;1.95;;;;;;;;;;5857243;28;20500;-84
2024/01/03 13:35:03;;;;;;;3.38;2.47;;;;;;;;;;5840475;28;20050;-84
2024/01/03 13:37:54;;;;;;;2.90;2.25;;;;;;;;;;5842441;28;20050;-84
2024/01/03 13:40:46;;;;;;;7.70;4.13;;;;;;;;;;5840433;28;20117;-85
2024/01/03 13:43:37;;;;;;;4.25;2.25;;;;;;;;;;5841853;28;20073;-85
2024/01/03 13:46:28;;;;;;;2.20;2.03;;;;;;;;;;5841775;28;20046;-85
2024/01/03 13:49:21;;;;;;;2.22;1.45;;;;;;;;;;5840353;28;20042;-85
2024/01/03 13:52:14;;;;;;;1.55;1.23;;;;;;;;;;5856608;28;20053;-86
2024/01/03 13:55:05;;;;;;;4.22;2.60;;;;;;;;;;5840173;28;20123;-87
2024/01/03 13:57:57;;;;;;;3.72;2.60;;;;;;;;;;5842111;28;20046;-87
2024/01/03 14:00:52;;;;;;;3.17;2.55;;;;;;;;;;5865437;28;20411;-87
2024/01/03 14:03:44;;;;;;;2.47;2.22;;;;;;;;;;5863721;28;20049;-88
2024/01/03 14:06:41;;;;;;;7.07;2.88;;;;;;;;;;5863978;28;20041;-87
2024/01/03 14:09:32;;;;;;;3.85;3.50;;;;;;;;;;5864677;28;20091;-87
2024/01/03 14:12:23;;;;;;;4.72;3.22;;;;;;;;;;5863796;28;20042;-87
2024/01/03 14:15:14;;;;;;;5.50;2.75;;;;;;;;;;5863780;28;20046;-87
2024/01/03 14:18:06;;;;;;;6.43;2.47;;;;;;;;;;5863886;28;20053;-87
2024/01/03 14:20:57;;;;;;;5.78;4.72;;;;;;;;;;5863888;28;20720;-86
2024/01/03 14:23:48;;;;;;;3.60;2.38;;;;;;;;;;5862641;28;20045;-86
2024/01/03 14:26:39;;;;;;;5.05;3.38;;;;;;;;;;5862769;28;20052;-88
2024/01/03 14:29:31;;;;;;;3.45;2.70;;;;;;;;;;5862428;28;20053;-88
2024/01/03 14:32:22;;;;;;;5.65;2.63;;;;;;;;;;5862380;28;20049;-86
2024/01/03 14:35:15;;;;;;;5.47;2.63;;;;;;;;;;5862317;28;20045;-87
2024/01/03 14:38:06;;;;;;;3.72;1.55;;;;;;;;;;5862474;28;20056;-85
2024/01/03 14:41:02;;;;;;;14.02;7.28;;;;;;;;;;5863004;28;20423;-87
2024/01/03 14:43:59;;;;;;;14.63;8.25;;;;;;;;;;5862146;28;20049;-87
2024/01/03 14:46:50;;;;;;;7.25;3.88;;;;;;;;;;5862544;28;20455;-88
2024/01/03 14:49:44;;;;;;;8.95;7.72;;;;;;;;;;5863401;28;20056;-87
2024/01/03 14:52:35;;;;;;;4.75;3.67;;;;;;;;;;5862673;28;20045;-88
2024/01/03 14:55:26;;;;;;;8.13;5.65;;;;;;;;;;5863351;28;20045;-86
2024/01/03 14:58:16;;;;;;;6.03;4.22;;;;;;;;;;5826963;28;20053;-86
2024/01/03 15:01:08;;;;;;;5.45;4.75;;;;;;;;;;5838711;28;20049;-86
2024/01/03 15:03:59;;;;;;;7.53;2.60;;;;;;;;;;5839245;28;20046;-87
2024/01/03 15:06:57;;;;;;;2.80;2.60;;;;;;;;;;5838834;28;20049;-86
2024/01/03 15:09:49;;;;;;;2.30;2.00;;;;;;;;;;5839423;28;20037;-86
2024/01/03 15:12:40;;;;;;;4.65;2.80;;;;;;;;;;5855702;28;20046;-87
2024/01/03 15:15:35;;;;;;;7.00;3.67;;;;;;;;;;5840089;28;20050;-86
2024/01/03 15:18:26;;;;;;;2.10;1.95;;;;;;;;;;5839510;28;20073;-87
2024/01/03 15:21:17;;;;;;;4.93;2.08;;;;;;;;;;5839085;28;20092;-86
2024/01/03 15:24:07;;;;;;;5.85;2.15;;;;;;;;;;5838915;28;20059;-87
2024/01/03 15:27:03;;;;;;;4.07;2.53;;;;;;;;;;5840293;28;20169;-88
2024/01/03 15:29:54;;;;;;;4.88;3.05;;;;;;;;;;5839723;28;20409;-87
2024/01/03 15:32:45;;;;;;;2.40;1.98;;;;;;;;;;5839307;28;20052;-86
2024/01/03 15:35:36;;;;;;;7.63;3.38;;;;;;;;;;5840796;28;20122;-87
2024/01/03 15:38:27;;;;;;;9.02;6.32;;;;;;;;;;5838758;28;20145;-86
2024/01/03 15:41:18;;;;;;;11.93;7.72;;;;;;;;;;5822668;28;20045;-87
2024/01/03 15:44:09;;;;;;;8.88;4.72;;;;;;;;;;5839585;28;20124;-86
2024/01/03 15:47:01;;;;;;;5.43;4.53;;;;;;;;;;5838953;28;20045;-87
2024/01/03 15:49:52;;;;;;;6.22;4.25;;;;;;;;;;5839575;28;20059;-87
2024/01/03 15:52:43;;;;;;;6.75;3.42;;;;;;;;;;5837929;28;20053;-87
2024/01/03 15:55:33;;;;;;;3.65;3.22;;;;;;;;;;5839410;28;20411;-87
2024/01/03 15:58:24;;;;;;;7.25;3.78;;;;;;;;;;5821878;28;20049;-87
2024/01/03 16:01:15;;;;;;;3.55;2.53;;;;;;;;;;5821682;28;20087;-88
2024/01/03 16:04:06;;;;;;;4.13;2.40;;;;;;;;;;5839515;28;20046;-86
2024/01/03 16:06:57;;;;;;;12.15;4.03;;;;;;;;;;5838454;28;20232;-87
2024/01/03 16:09:48;;;;;;;11.60;3.85;;;;;;;;;;5837815;28;20041;-87
2024/01/03 16:12:40;;;;;;;4.55;4.05;;;;;;;;;;5839604;28;20049;-87
2024/01/03 16:15:31;;;;;;;7.43;4.60;;;;;;;;;;5839316;28;20046;-87
2024/01/03 16:18:23;;;;;;;7.10;3.88;;;;;;;;;;5837904;28;20042;-88
2024/01/03 16:21:13;;;;;;;8.85;4.78;;;;;;;;;;5837801;28;20638;-87
2024/01/03 16:24:04;;;;;;;14.02;8.77;;;;;;;;;;5821739;28;20057;-88
2024/01/03 16:26:59;;;;;;;9.40;7.10;;;;;;;;;;5838243;28;20057;-88
2024/01/03 16:29:50;;;;;;;3.25;2.70;;;;;;;;;;5839398;28;20048;-88
2024/01/03 16:32:41;;;;;;;4.38;3.42;;;;;;;;;;5854659;28;20046;-88
2024/01/03 16:35:32;;;;;;;10.15;4.60;;;;;;;;;;5838995;28;20368;-88
2024/01/03 16:38:23;;;;;;;6.90;3.35;;;;;;;;;;5838176;28;20045;-89
2024/01/03 16:41:15;;;;;;;9.80;4.78;;;;;;;;;;5839156;28;20049;-88
2024/01/03 16:44:06;;;;;;;7.57;3.58;;;;;;;;;;5822165;28;20408;-87
2024/01/03 16:46:57;;;;;;;12.20;5.40;;;;;;;;;;5841769;28;20041;-88
2024/01/03 16:49:47;;;;;;;15.95;10.23;;;;;;;;;;5843365;28;20042;-88
2024/01/03 16:52:41;;;;;;;12.73;9.20;;;;;;;;;;5842152;28;20119;-88
2024/01/03 16:55:33;;;;;;;10.50;5.60;;;;;;;;;;5843508;28;20042;-88
2024/01/03 16:58:24;;;;;;;4.22;3.38;;;;;;;;;;5841992;28;20038;-88
2024/01/03 17:01:15;;;;;;;9.80;6.63;;;;;;;;;;5841786;28;20125;-88
2024/01/03 17:04:06;;;;;;;4.45;4.05;;;;;;;;;;5843241;28;20451;-87
2024/01/03 17:06:57;;;;;;;28.98;17.00;;;;;;;;;;5826337;28;20051;-88
2024/01/03 17:09:49;;;;;;;23.67;15.45;;;;;;;;;;5843267;28;20411;-89
2024/01/03 17:12:43;;;;;;;32.88;15.90;;;;;;;;;;5843199;28;20060;-88